createdAt,value
2019-05-30T00:00:06.755Z,8.95
2019-05-30T00:02:26.589Z,8.95
2019-05-30T00:05:00.206Z,8.80
2019-05-30T00:07:32.744Z,8.70
2019-05-30T00:10:07.369Z,9.43
2019-05-30T00:12:39.535Z,8.03
2019-05-30T00:15:12.315Z,9.10
2019-05-30T00:17:44.481Z,10.70
2019-05-30T00:20:17.162Z,9.88
2019-05-30T00:22:49.739Z,10.03
2019-05-30T00:25:22.826Z,11.80
2019-05-30T00:27:55.402Z,9.98
2019-05-30T00:30:27.983Z,10.93
2019-05-30T00:33:00.766Z,10.25
2019-05-30T00:35:32.932Z,10.65
2019-05-30T00:38:06.071Z,10.08
2019-05-30T00:40:38.283Z,9.43
2019-05-30T00:43:11.066Z,10.58
2019-05-30T00:45:43.136Z,10.65
2019-05-30T00:48:15.608Z,10.00
2019-05-30T00:50:47.883Z,10.00
2019-05-30T00:53:20.567Z,9.95
2019-05-30T00:55:53.034Z,10.15
2019-05-30T00:58:25.093Z,9.48
2019-05-30T01:00:59.051Z,10.05
2019-05-30T01:03:31.803Z,9.65
2019-05-30T01:06:04.987Z,10.08
2019-05-30T01:08:37.450Z,10.20
2019-05-30T01:11:09.925Z,9.65
2019-05-30T01:13:42.091Z,9.55
2019-05-30T01:16:14.358Z,8.60
2019-05-30T01:18:47.137Z,9.55
2019-05-30T01:21:19.614Z,9.88
2019-05-30T01:23:51.883Z,9.03
2019-05-30T01:26:24.258Z,8.75
2019-05-30T01:28:57.324Z,8.58
2019-05-30T01:31:29.610Z,9.23
2019-05-30T01:34:02.086Z,8.68
2019-05-30T01:36:34.568Z,8.55
2019-05-30T01:39:08.184Z,9.53
2019-05-30T01:41:40.740Z,10.68
2019-05-30T01:44:13.011Z,9.05
2019-05-30T01:46:45.606Z,8.78
2019-05-30T01:49:18.064Z,9.10
2019-05-30T01:51:50.446Z,11.10
2019-05-30T01:54:23.112Z,14.13
2019-05-30T01:56:55.289Z,13.65
2019-05-30T01:59:28.570Z,14.98
2019-05-30T02:02:01.154Z,16.23
2019-05-30T02:04:35.259Z,16.87
2019-05-30T02:07:09.299Z,20.80
2019-05-30T02:09:41.640Z,19.73
2019-05-30T02:12:14.116Z,19.35
2019-05-30T02:14:46.495Z,19.02
2019-05-30T02:17:18.760Z,17.23
2019-05-30T02:19:51.131Z,16.73
2019-05-30T02:22:23.713Z,17.50
2019-05-30T02:24:56.178Z,16.85
2019-05-30T02:27:28.513Z,17.62
2019-05-30T02:30:03.276Z,13.38
2019-05-30T02:32:35.148Z,12.35
2019-05-30T02:35:10.299Z,11.70
2019-05-30T02:37:42.451Z,13.95
2019-05-30T02:40:16.675Z,14.10
2019-05-30T02:42:49.045Z,12.60
2019-05-30T02:45:21.707Z,13.18
2019-05-30T02:47:53.880Z,13.93
2019-05-30T02:50:26.149Z,12.43
2019-05-30T02:52:58.927Z,12.45
2019-05-30T02:55:31.403Z,12.65
2019-05-30T02:58:05.983Z,13.38
2019-05-30T03:00:38.913Z,13.55
2019-05-30T03:03:14.272Z,12.95
2019-05-30T03:05:46.320Z,12.80
2019-05-30T03:08:19.102Z,11.35
2019-05-30T03:10:51.986Z,11.00
2019-05-30T03:13:24.456Z,11.35
2019-05-30T03:15:56.728Z,14.35
2019-05-30T03:18:29.512Z,10.98
2019-05-30T03:21:03.275Z,10.70
2019-05-30T03:23:36.097Z,9.03
2019-05-30T03:26:10.740Z,7.87
2019-05-30T03:28:42.785Z,8.28
2019-05-30T03:31:27.881Z,7.10
2019-05-30T03:33:52.347Z,6.80
2019-05-30T03:36:30.927Z,6.72
2019-05-30T03:38:58.929Z,6.47
2019-05-30T03:41:32.423Z,7.00
2019-05-30T03:44:06.014Z,8.43
2019-05-30T03:46:42.493Z,8.90
2019-05-30T03:49:17.732Z,6.20
2019-05-30T03:51:51.720Z,6.40
2019-05-30T03:54:25.317Z,8.15
2019-05-30T03:57:04.743Z,6.60
2019-05-30T03:59:43.498Z,6.28
2019-05-30T04:02:28.372Z,6.30
2019-05-30T04:05:16.412Z,7.45
2019-05-30T04:07:54.604Z,7.15
2019-05-30T04:10:30.169Z,8.15
2019-05-30T04:13:12.886Z,9.18
2019-05-30T04:15:46.278Z,7.37
2019-05-30T04:18:19.533Z,10.68
2019-05-30T04:20:51.934Z,9.20
2019-05-30T04:23:24.223Z,6.72
2019-05-30T04:26:00.280Z,12.85
2019-05-30T04:28:30.301Z,7.25
2019-05-30T04:31:02.856Z,6.50
2019-05-30T04:33:35.549Z,8.90
2019-05-30T04:36:08.539Z,7.22
2019-05-30T04:38:40.909Z,9.35
2019-05-30T04:41:15.989Z,10.55
2019-05-30T04:43:48.410Z,21.57
2019-05-30T04:46:21.756Z,6.75
2019-05-30T04:48:54.482Z,5.83
2019-05-30T04:51:26.950Z,9.78
2019-05-30T04:53:59.641Z,6.75
2019-05-30T04:56:31.903Z,8.58
2019-05-30T04:59:04.585Z,8.20
2019-05-30T05:01:37.373Z,6.25
2019-05-30T05:04:11.387Z,6.22
2019-05-30T05:06:43.943Z,6.35
2019-05-30T05:09:18.019Z,7.53
2019-05-30T05:11:50.532Z,5.85
2019-05-30T05:14:22.910Z,9.23
2019-05-30T05:16:55.282Z,9.35
2019-05-30T05:19:27.762Z,11.93
2019-05-30T05:22:00.432Z,8.15
2019-05-30T05:24:32.714Z,7.22
2019-05-30T05:27:05.478Z,7.30
2019-05-30T05:29:37.955Z,7.92
2019-05-30T05:32:10.838Z,8.80
2019-05-30T05:34:43.112Z,7.90
2019-05-30T05:37:16.910Z,8.45
2019-05-30T05:39:49.389Z,7.35
2019-05-30T05:42:22.539Z,7.95
2019-05-30T05:44:54.952Z,13.53
2019-05-30T05:47:28.584Z,31.40
2019-05-30T05:50:01.127Z,8.23
2019-05-30T05:52:34.959Z,8.38
2019-05-30T05:55:13.555Z,6.75
2019-05-30T05:57:45.928Z,6.60
2019-05-30T06:00:19.074Z,6.85
2019-05-30T06:02:51.990Z,6.85
2019-05-30T06:05:24.411Z,6.50
2019-05-30T06:07:56.959Z,7.97
2019-05-30T06:10:29.627Z,7.30
2019-05-30T06:13:02.106Z,6.65
2019-05-30T06:15:34.780Z,7.67
2019-05-30T06:18:07.358Z,7.58
2019-05-30T06:20:39.931Z,6.47
2019-05-30T06:23:12.309Z,8.60
2019-05-30T06:25:44.688Z,7.78
2019-05-30T06:28:17.977Z,7.50
2019-05-30T06:30:50.241Z,7.17
2019-05-30T06:33:23.497Z,6.35
2019-05-30T06:35:56.829Z,5.78
2019-05-30T06:38:29.515Z,6.05
2019-05-30T06:41:02.082Z,7.03
2019-05-30T06:43:34.862Z,8.48
2019-05-30T06:46:07.128Z,7.25
2019-05-30T06:48:39.710Z,6.95
2019-05-30T06:51:14.505Z,7.62
2019-05-30T06:53:46.560Z,5.97
2019-05-30T06:56:21.124Z,5.37
2019-05-30T06:58:53.495Z,5.62
2019-05-30T07:01:25.972Z,5.08
2019-05-30T07:04:00.378Z,7.28
2019-05-30T07:06:33.765Z,6.22
2019-05-30T07:09:08.547Z,6.92
2019-05-30T07:11:40.990Z,6.72
2019-05-30T07:14:13.668Z,13.03
2019-05-30T07:16:46.256Z,6.87
2019-05-30T07:19:18.940Z,8.48
2019-05-30T07:21:53.144Z,8.55
2019-05-30T07:24:26.227Z,13.95
2019-05-30T07:26:59.321Z,7.55
2019-05-30T07:29:32.193Z,7.58
2019-05-30T07:32:05.093Z,6.72
2019-05-30T07:34:37.356Z,7.08
2019-05-30T07:37:10.240Z,7.90
2019-05-30T07:39:42.510Z,5.92
2019-05-30T07:42:14.985Z,12.18
2019-05-30T07:44:47.661Z,8.95
2019-05-30T07:47:20.048Z,6.92
2019-05-30T07:49:52.618Z,13.80
2019-05-30T07:52:26.369Z,10.32
2019-05-30T07:54:59.332Z,7.10
2019-05-30T07:57:32.853Z,7.67
2019-05-30T08:00:08.238Z,9.73
2019-05-30T08:02:41.022Z,8.65
2019-05-30T08:05:23.732Z,6.58
2019-05-30T08:07:47.817Z,18.00
2019-05-30T08:10:22.151Z,8.68
2019-05-30T08:12:54.602Z,6.00
2019-05-30T08:15:27.266Z,6.42
2019-05-30T08:17:59.865Z,9.08
2019-05-30T08:20:33.813Z,6.47
2019-05-30T08:23:09.639Z,6.12
2019-05-30T08:25:40.253Z,7.78
2019-05-30T08:28:13.715Z,6.37
2019-05-30T08:30:47.046Z,5.50
2019-05-30T08:33:21.681Z,8.05
2019-05-30T08:35:53.526Z,5.83
2019-05-30T08:38:26.003Z,5.60
2019-05-30T08:40:59.709Z,6.37
2019-05-30T08:43:33.379Z,9.03
2019-05-30T08:46:05.781Z,6.22
2019-05-30T08:48:38.387Z,6.17
2019-05-30T08:51:10.867Z,8.65
2019-05-30T08:53:43.515Z,6.72
2019-05-30T08:56:16.090Z,7.12
2019-05-30T08:58:48.754Z,7.17
2019-05-30T09:01:21.260Z,6.92
2019-05-30T09:03:55.365Z,18.95
2019-05-30T09:06:27.626Z,7.75
2019-05-30T09:09:00.101Z,6.55
2019-05-30T09:11:32.678Z,9.15
2019-05-30T09:14:06.361Z,6.90
2019-05-30T09:16:38.548Z,6.58
2019-05-30T09:19:11.224Z,7.62
2019-05-30T09:21:43.599Z,5.80
2019-05-30T09:24:15.873Z,6.53
2019-05-30T09:26:50.282Z,6.45
2019-05-30T09:29:22.145Z,7.62
2019-05-30T09:31:54.622Z,7.15
2019-05-30T09:34:27.405Z,7.97
2019-05-30T09:36:59.871Z,6.17
2019-05-30T09:39:32.253Z,6.90
2019-05-30T09:42:04.828Z,7.03
2019-05-30T09:44:37.300Z,7.25
2019-05-30T09:47:11.217Z,5.70
2019-05-30T09:49:44.673Z,8.98
2019-05-30T09:52:17.086Z,6.72
2019-05-30T09:54:50.356Z,6.95
2019-05-30T09:57:22.743Z,6.25
2019-05-30T09:59:55.441Z,4.72
2019-05-30T10:02:28.098Z,4.60
2019-05-30T10:05:00.389Z,6.37
2019-05-30T10:07:33.658Z,12.58
2019-05-30T10:10:07.214Z,6.62
2019-05-30T10:12:39.837Z,4.90
2019-05-30T10:15:12.952Z,4.70
2019-05-30T10:17:46.242Z,5.75
2019-05-30T10:20:19.747Z,7.33
2019-05-30T10:22:53.751Z,6.58
2019-05-30T10:25:26.315Z,6.10
2019-05-30T10:27:58.778Z,5.42
2019-05-30T10:30:31.563Z,5.70
2019-05-30T10:33:04.245Z,5.65
2019-05-30T10:35:36.360Z,5.42
2019-05-30T10:38:09.291Z,5.00
2019-05-30T10:40:41.664Z,5.50
2019-05-30T10:43:14.137Z,8.40
2019-05-30T10:45:47.965Z,4.97
2019-05-30T10:48:21.296Z,5.22
2019-05-30T10:50:54.445Z,9.55
2019-05-30T10:53:27.163Z,8.03
2019-05-30T10:55:59.492Z,6.20
2019-05-30T10:58:32.055Z,5.83
2019-05-30T11:01:05.350Z,6.12
2019-05-30T11:03:38.032Z,5.10
2019-05-30T11:06:28.623Z,5.28
2019-05-30T11:09:04.889Z,12.43
2019-05-30T11:11:37.570Z,5.75
2019-05-30T11:14:10.151Z,5.50
2019-05-30T11:16:42.626Z,5.15
2019-05-30T11:19:15.499Z,6.25
2019-05-30T11:21:47.977Z,6.45
2019-05-30T11:24:20.453Z,15.55
2019-05-30T11:26:54.192Z,6.30
2019-05-30T11:29:27.145Z,6.17
2019-05-30T11:32:00.438Z,6.25
2019-05-30T11:34:33.117Z,6.10
2019-05-30T11:37:18.841Z,9.38
2019-05-30T11:39:39.599Z,7.10
2019-05-30T11:42:11.764Z,7.05
2019-05-30T11:44:44.243Z,5.12
2019-05-30T11:47:16.520Z,5.35
2019-05-30T11:49:49.560Z,9.53
2019-05-30T11:52:21.974Z,5.42
2019-05-30T11:54:55.758Z,7.30
2019-05-30T11:57:28.457Z,5.25
2019-05-30T12:00:00.830Z,6.12
2019-05-30T12:02:33.714Z,7.17
2019-05-30T12:05:07.189Z,6.72
2019-05-30T12:07:40.813Z,7.03
2019-05-30T12:10:14.190Z,5.97
2019-05-30T12:12:46.574Z,7.80
2019-05-30T12:15:19.767Z,7.17
2019-05-30T12:17:53.254Z,5.90
2019-05-30T12:20:25.844Z,6.17
2019-05-30T12:22:58.419Z,6.40
2019-05-30T12:25:30.898Z,6.20
2019-05-30T12:28:04.645Z,6.87
2019-05-30T12:30:37.379Z,6.00
2019-05-30T12:33:09.910Z,6.47
2019-05-30T12:35:42.528Z,7.80
2019-05-30T12:38:14.800Z,5.80
2019-05-30T12:40:47.373Z,6.05
2019-05-30T12:43:19.752Z,6.17
2019-05-30T12:45:52.873Z,7.35
2019-05-30T12:48:25.214Z,6.58
2019-05-30T12:50:57.904Z,6.70
2019-05-30T12:53:30.394Z,8.15
2019-05-30T12:56:03.351Z,5.40
2019-05-30T12:58:37.057Z,10.70
2019-05-30T13:01:09.462Z,5.90
2019-05-30T13:03:43.261Z,6.53
2019-05-30T13:06:15.602Z,16.15
2019-05-30T13:08:48.072Z,8.50
2019-05-30T13:11:20.550Z,6.85
2019-05-30T13:13:55.019Z,7.35
2019-05-30T13:16:27.037Z,6.53
2019-05-30T13:19:00.020Z,6.67
2019-05-30T13:21:32.599Z,7.00
2019-05-30T13:24:06.030Z,7.85
2019-05-30T13:26:38.361Z,7.67
2019-05-30T13:29:10.948Z,14.40
2019-05-30T13:31:43.210Z,7.30
2019-05-30T13:34:15.788Z,6.05
2019-05-30T13:36:49.287Z,7.87
2019-05-30T13:39:21.966Z,6.87
2019-05-30T13:41:54.542Z,7.22
2019-05-30T13:44:27.221Z,8.15
2019-05-30T13:47:00.850Z,8.73
2019-05-30T13:49:33.296Z,6.90
2019-05-30T13:52:07.130Z,8.28
2019-05-30T13:54:40.934Z,10.53
2019-05-30T13:57:13.481Z,11.18
2019-05-30T13:59:45.858Z,9.03
2019-05-30T14:02:18.561Z,6.20
2019-05-30T14:04:50.908Z,8.63
2019-05-30T14:07:23.490Z,7.40
2019-05-30T14:09:56.059Z,5.97
2019-05-30T14:12:28.535Z,5.62
2019-05-30T14:15:03.334Z,5.40
2019-05-30T14:17:35.744Z,7.10
2019-05-30T14:20:09.101Z,5.47
2019-05-30T14:22:42.009Z,7.37
2019-05-30T14:25:15.219Z,6.87
2019-05-30T14:27:47.473Z,10.70
2019-05-30T14:30:22.104Z,12.50
2019-05-30T14:32:54.471Z,6.00
2019-05-30T14:35:27.866Z,8.05
2019-05-30T14:38:00.446Z,8.38
2019-05-30T14:40:32.919Z,8.60
2019-05-30T14:43:05.595Z,7.87
2019-05-30T14:45:38.379Z,7.17
2019-05-30T14:48:10.852Z,6.60
2019-05-30T14:50:43.429Z,8.08
2019-05-30T14:53:17.115Z,6.22
2019-05-30T14:55:49.508Z,12.40
2019-05-30T14:58:21.979Z,6.80
2019-05-30T15:00:54.464Z,6.62
2019-05-30T15:03:27.309Z,13.10
2019-05-30T15:05:59.607Z,10.10
2019-05-30T15:08:32.395Z,10.78
2019-05-30T15:11:05.483Z,9.98
2019-05-30T15:13:38.671Z,8.90
2019-05-30T15:16:10.944Z,10.38
2019-05-30T15:18:43.417Z,9.75
2019-05-30T15:21:16.620Z,11.40
2019-05-30T15:23:48.976Z,9.15
2019-05-30T15:26:21.456Z,9.28
2019-05-30T15:28:53.926Z,9.03
2019-05-30T15:31:26.502Z,7.62
2019-05-30T15:33:58.767Z,6.85
2019-05-30T15:36:31.256Z,6.95
2019-05-30T15:39:05.153Z,11.33
2019-05-30T15:41:37.526Z,7.92
2019-05-30T15:44:09.897Z,7.35
2019-05-30T15:46:42.268Z,8.50
2019-05-30T15:49:14.542Z,7.15
2019-05-30T15:51:46.909Z,7.45
2019-05-30T15:54:19.772Z,8.25
2019-05-30T15:56:52.157Z,7.28
2019-05-30T15:59:24.537Z,8.18
2019-05-30T16:01:57.562Z,6.87
2019-05-30T16:04:29.895Z,7.08
2019-05-30T16:07:02.270Z,6.58
2019-05-30T16:09:46.844Z,9.30
2019-05-30T16:12:11.003Z,7.08
2019-05-30T16:14:43.272Z,9.25
2019-05-30T16:17:15.869Z,9.90
2019-05-30T16:19:48.839Z,8.55
2019-05-30T16:22:22.665Z,10.55
2019-05-30T16:24:55.235Z,14.98
2019-05-30T16:27:31.047Z,11.12
2019-05-30T16:30:03.011Z,9.53
2019-05-30T16:32:36.221Z,10.18
2019-05-30T16:35:09.220Z,11.68
2019-05-30T16:37:41.788Z,9.85
2019-05-30T16:40:16.237Z,10.72
2019-05-30T16:42:49.096Z,9.68
2019-05-30T16:45:25.043Z,10.05
2019-05-30T16:47:55.988Z,9.23
2019-05-30T16:50:28.673Z,9.73
2019-05-30T16:53:01.344Z,9.48
2019-05-30T16:55:33.821Z,9.53
2019-05-30T16:58:06.793Z,9.30
2019-05-30T17:00:39.076Z,9.30
2019-05-30T17:03:11.748Z,9.93
2019-05-30T17:05:44.228Z,10.28
2019-05-30T17:08:16.496Z,10.28
2019-05-30T17:10:50.404Z,10.18
2019-05-30T17:13:23.858Z,10.70
2019-05-30T17:15:57.301Z,9.48
2019-05-30T17:18:29.772Z,10.75
2019-05-30T17:21:03.681Z,10.90
2019-05-30T17:23:36.152Z,10.40
2019-05-30T17:26:08.628Z,10.93
2019-05-30T17:28:41.099Z,10.72
2019-05-30T17:31:13.475Z,12.13
2019-05-30T17:33:46.252Z,12.40
2019-05-30T17:36:18.526Z,12.75
2019-05-30T17:38:51.956Z,12.18
2019-05-30T17:41:24.840Z,12.20
2019-05-30T17:43:57.193Z,11.55
2019-05-30T17:46:30.232Z,13.05
2019-05-30T17:49:04.891Z,15.23
2019-05-30T17:51:37.363Z,15.95
2019-05-30T17:54:10.291Z,16.27
2019-05-30T17:56:43.753Z,15.80
2019-05-30T17:59:16.116Z,14.80
2019-05-30T18:01:48.796Z,15.25
2019-05-30T18:04:22.380Z,20.80
2019-05-30T18:06:54.775Z,21.60
2019-05-30T18:09:27.658Z,18.07
2019-05-30T18:11:59.985Z,17.95
2019-05-30T18:14:32.517Z,16.12
2019-05-30T18:17:04.977Z,20.23
2019-05-30T18:19:37.556Z,18.40
2019-05-30T18:22:10.147Z,21.02
2019-05-30T18:24:42.602Z,20.15
2019-05-30T18:27:15.383Z,22.45
2019-05-30T18:29:47.855Z,23.83
2019-05-30T18:32:20.330Z,22.80
2019-05-30T18:34:52.601Z,22.65
2019-05-30T18:37:26.247Z,23.47
2019-05-30T18:39:58.882Z,21.17
2019-05-30T18:42:31.338Z,21.50
2019-05-30T18:45:04.351Z,23.30
2019-05-30T18:47:36.929Z,23.52
2019-05-30T18:50:10.327Z,23.10
2019-05-30T18:52:43.204Z,23.38
2019-05-30T18:55:15.775Z,22.87
2019-05-30T18:57:48.248Z,24.55
2019-05-30T19:00:21.031Z,27.62
2019-05-30T19:02:53.749Z,29.00
2019-05-30T19:05:26.590Z,40.35
2019-05-30T19:07:59.171Z,38.63
2019-05-30T19:10:32.188Z,31.52
2019-05-30T19:13:05.088Z,31.52
2019-05-30T19:15:37.764Z,32.98
2019-05-30T19:18:10.501Z,33.35
2019-05-30T19:20:43.180Z,33.48
2019-05-30T19:23:15.957Z,27.32
2019-05-30T19:25:48.537Z,25.80
2019-05-30T19:28:21.039Z,25.25
2019-05-30T19:30:53.384Z,26.62
2019-05-30T19:33:26.683Z,25.97
2019-05-30T19:35:59.459Z,26.37
2019-05-30T19:38:33.333Z,25.25
2019-05-30T19:41:05.851Z,26.45
2019-05-30T19:43:38.421Z,27.13
2019-05-30T19:46:13.198Z,25.85
2019-05-30T19:48:44.906Z,25.92
2019-05-30T19:51:20.875Z,27.02
2019-05-30T19:53:52.160Z,26.12
2019-05-30T19:56:24.677Z,23.67
2019-05-30T19:58:57.768Z,21.33
2019-05-30T20:01:31.726Z,19.20
2019-05-30T20:04:05.890Z,19.87
2019-05-30T20:06:38.786Z,19.57
2019-05-30T20:09:11.353Z,21.55
2019-05-30T20:11:44.089Z,19.48
2019-05-30T20:14:16.714Z,18.75
2019-05-30T20:16:49.188Z,20.45
2019-05-30T20:19:21.865Z,22.50
2019-05-30T20:21:54.651Z,20.88
2019-05-30T20:24:26.915Z,21.07
2019-05-30T20:26:59.492Z,20.88
2019-05-30T20:29:32.882Z,20.15
2019-05-30T20:32:05.472Z,22.02
2019-05-30T20:34:39.174Z,23.38
2019-05-30T20:37:11.538Z,22.48
2019-05-30T20:39:44.027Z,23.32
2019-05-30T20:42:19.498Z,23.35
2019-05-30T20:44:50.903Z,23.52
2019-05-30T20:47:23.993Z,22.55
2019-05-30T20:49:56.476Z,23.00
2019-05-30T20:52:28.839Z,23.57
2019-05-30T20:55:01.519Z,24.00
2019-05-30T20:57:34.261Z,26.62
2019-05-30T21:00:11.002Z,26.35
2019-05-30T21:02:43.850Z,25.80
2019-05-30T21:05:16.853Z,24.87
2019-05-30T21:07:51.038Z,26.10
2019-05-30T21:10:23.228Z,25.30
2019-05-30T21:12:57.033Z,23.95
2019-05-30T21:15:32.205Z,26.17
2019-05-30T21:18:05.326Z,24.10
2019-05-30T21:20:38.552Z,24.92
2019-05-30T21:23:10.821Z,24.37
2019-05-30T21:25:43.207Z,24.05
2019-05-30T21:28:15.666Z,24.18
2019-05-30T21:30:48.552Z,23.95
2019-05-30T21:33:21.283Z,24.32
2019-05-30T21:35:54.169Z,24.77
2019-05-30T21:38:26.484Z,24.52
2019-05-30T21:40:59.064Z,26.52
2019-05-30T21:43:31.737Z,25.80
2019-05-30T21:46:04.112Z,27.25
2019-05-30T21:48:36.379Z,28.07
2019-05-30T21:51:08.859Z,33.48
2019-05-30T21:53:41.640Z,34.20
2019-05-30T21:56:15.138Z,38.05
2019-05-30T21:58:48.318Z,41.45
2019-05-30T22:01:26.968Z,42.90
2019-05-30T22:04:00.361Z,46.88
2019-05-30T22:06:32.714Z,47.78
2019-05-30T22:09:07.693Z,42.78
2019-05-30T22:11:40.017Z,44.33
2019-05-30T22:14:12.489Z,41.70
2019-05-30T22:16:45.889Z,38.42
2019-05-30T22:19:18.468Z,37.88
2019-05-30T22:21:52.212Z,37.23
2019-05-30T22:24:24.757Z,36.98
2019-05-30T22:26:57.011Z,35.08
2019-05-30T22:29:29.491Z,34.38
2019-05-30T22:32:02.778Z,32.78
2019-05-30T22:34:35.361Z,31.40
2019-05-30T22:37:07.829Z,27.50
2019-05-30T22:39:40.513Z,28.95
2019-05-30T22:42:13.193Z,29.10
2019-05-30T22:44:46.054Z,28.77
2019-05-30T22:47:18.548Z,28.15
2019-05-30T22:49:51.125Z,28.45
2019-05-30T22:52:26.055Z,28.60
2019-05-30T22:54:59.263Z,29.42
2019-05-30T22:57:31.521Z,29.05
2019-05-30T23:00:06.961Z,29.35
2019-05-30T23:02:40.360Z,28.25
2019-05-30T23:05:13.756Z,27.67
2019-05-30T23:07:47.259Z,29.95
2019-05-30T23:10:20.548Z,26.87
2019-05-30T23:12:54.063Z,28.90
2019-05-30T23:15:26.312Z,28.77
2019-05-30T23:17:58.787Z,27.70
2019-05-30T23:20:31.159Z,26.48
2019-05-30T23:23:03.528Z,27.13
2019-05-30T23:25:35.700Z,28.02
2019-05-30T23:28:08.172Z,28.73
2019-05-30T23:30:40.572Z,27.62
2019-05-30T23:33:12.916Z,26.00
2019-05-30T23:35:45.080Z,25.75
2019-05-30T23:38:17.656Z,23.45
2019-05-30T23:40:51.022Z,23.90
2019-05-30T23:43:23.222Z,23.73
2019-05-30T23:45:55.779Z,25.02
2019-05-30T23:48:28.281Z,24.10
2019-05-30T23:51:00.545Z,22.35
2019-05-30T23:53:33.428Z,20.82
2019-05-30T23:56:05.796Z,20.50
2019-05-30T23:58:38.476Z,21.95
